createdAt,value
2023-01-18T00:02:20.769Z,4.20
2023-01-18T00:05:08.807Z,4.50
2023-01-18T00:07:56.011Z,5.20
2023-01-18T00:10:44.249Z,4.58
2023-01-18T00:13:31.464Z,4.33
2023-01-18T00:16:21.228Z,4.92
2023-01-18T00:19:10.107Z,4.25
2023-01-18T00:21:57.759Z,4.47
2023-01-18T00:24:44.877Z,3.10
2023-01-18T00:27:32.207Z,3.85
2023-01-18T00:30:21.140Z,4.17
2023-01-18T00:33:10.076Z,3.00
2023-01-18T00:36:02.343Z,2.50
2023-01-18T00:38:53.959Z,3.33
2023-01-18T00:41:43.193Z,3.22
2023-01-18T00:44:30.715Z,3.42
2023-01-18T00:47:18.252Z,4.15
2023-01-18T00:50:08.897Z,3.17
2023-01-18T00:52:58.228Z,3.58
2023-01-18T00:55:45.557Z,2.42
2023-01-18T00:58:32.929Z,2.72
2023-01-18T01:01:20.292Z,2.62
2023-01-18T01:04:25.591Z,2.52
2023-01-18T01:07:13.272Z,2.65
2023-01-18T01:10:00.641Z,2.75
2023-01-18T01:13:06.038Z,3.10
2023-01-18T01:16:11.302Z,2.33
2023-01-18T01:19:19.126Z,2.75
2023-01-18T01:22:24.628Z,2.45
2023-01-18T01:25:30.290Z,2.40
2023-01-18T01:28:17.776Z,2.90
2023-01-18T01:31:08.142Z,2.45
2023-01-18T01:33:55.446Z,2.15
2023-01-18T01:36:42.880Z,2.37
2023-01-18T01:39:31.312Z,2.30
2023-01-18T01:42:18.539Z,2.22
2023-01-18T01:45:07.593Z,2.40
2023-01-18T01:47:57.448Z,2.08
2023-01-18T01:50:44.817Z,2.15
2023-01-18T01:53:32.306Z,1.98
2023-01-18T01:56:21.846Z,1.92
2023-01-18T01:59:10.599Z,2.20
2023-01-18T02:01:59.013Z,2.35
2023-01-18T02:04:48.239Z,2.50
2023-01-18T02:07:35.624Z,2.47
2023-01-18T02:10:22.953Z,2.40
2023-01-18T02:13:11.652Z,2.40
2023-01-18T02:16:14.530Z,2.62
2023-01-18T02:19:13.566Z,2.17
2023-01-18T02:22:08.266Z,2.22
2023-01-18T02:25:10.452Z,2.55
2023-01-18T02:28:17.154Z,2.20
2023-01-18T02:31:10.469Z,2.00
2023-01-18T02:34:01.852Z,2.08
2023-01-18T02:37:13.523Z,2.12
2023-01-18T02:40:21.867Z,2.70
2023-01-18T02:43:28.543Z,2.12
2023-01-18T02:46:34.031Z,2.20
2023-01-18T02:49:29.807Z,2.60
2023-01-18T02:52:36.668Z,2.20
2023-01-18T02:55:41.967Z,2.45
2023-01-18T02:58:35.346Z,2.25
2023-01-18T03:01:27.708Z,2.22
2023-01-18T03:04:17.954Z,2.40
2023-01-18T03:07:09.622Z,2.40
2023-01-18T03:09:58.637Z,2.58
2023-01-18T03:13:00.863Z,2.50
2023-01-18T03:15:57.217Z,2.37
2023-01-18T03:19:05.158Z,2.70
2023-01-18T03:21:54.478Z,2.50
2023-01-18T03:24:42.249Z,2.20
2023-01-18T03:27:48.744Z,2.22
2023-01-18T03:30:55.331Z,2.60
2023-01-18T03:33:48.967Z,2.67
2023-01-18T03:36:39.419Z,2.47
2023-01-18T03:39:40.272Z,2.37
2023-01-18T03:42:30.701Z,2.50
2023-01-18T03:45:32.965Z,2.17
2023-01-18T03:48:20.515Z,2.55
2023-01-18T03:51:11.122Z,2.50
2023-01-18T03:54:13.424Z,2.60
2023-01-18T03:57:06.740Z,2.52
2023-01-18T03:59:54.002Z,2.40
2023-01-18T04:02:43.670Z,2.58
2023-01-18T04:05:31.659Z,1.92
2023-01-18T04:08:20.683Z,2.35
2023-01-18T04:11:08.096Z,2.15
2023-01-18T04:13:55.364Z,2.40
2023-01-18T04:16:43.131Z,2.50
2023-01-18T04:19:30.606Z,1.98
2023-01-18T04:22:17.699Z,2.05
2023-01-18T04:25:05.460Z,2.15
2023-01-18T04:27:53.038Z,1.70
2023-01-18T04:30:40.482Z,2.12
2023-01-18T04:33:28.153Z,1.92
2023-01-18T04:36:15.413Z,1.90
2023-01-18T04:39:02.594Z,1.72
2023-01-18T04:41:50.041Z,1.82
2023-01-18T04:44:37.578Z,1.82
2023-01-18T04:47:24.995Z,1.57
2023-01-18T04:50:12.945Z,1.87
2023-01-18T04:53:00.677Z,1.90
2023-01-18T04:55:48.568Z,1.52
2023-01-18T04:58:36.382Z,1.75
2023-01-18T05:01:24.263Z,1.70
2023-01-18T05:04:11.725Z,2.35
2023-01-18T05:07:00.666Z,1.80
2023-01-18T05:09:47.927Z,1.82
2023-01-18T05:12:35.130Z,1.75
2023-01-18T05:15:22.869Z,1.95
2023-01-18T05:18:10.215Z,1.80
2023-01-18T05:20:57.669Z,1.87
2023-01-18T05:23:45.058Z,1.87
2023-01-18T05:26:32.618Z,2.08
2023-01-18T05:29:20.178Z,1.72
2023-01-18T05:32:07.750Z,2.08
2023-01-18T05:34:55.275Z,2.10
2023-01-18T05:37:42.332Z,2.10
2023-01-18T05:40:29.764Z,2.08
2023-01-18T05:43:17.546Z,1.77
2023-01-18T05:46:05.212Z,1.70
2023-01-18T05:48:54.225Z,1.90
2023-01-18T05:51:41.730Z,1.70
2023-01-18T05:54:29.052Z,2.17
2023-01-18T05:57:16.540Z,1.77
2023-01-18T06:00:06.050Z,1.70
2023-01-18T06:02:54.788Z,1.90
2023-01-18T06:05:42.209Z,1.75
2023-01-18T06:08:29.815Z,1.57
2023-01-18T06:11:17.489Z,1.60
2023-01-18T06:14:04.900Z,1.70
2023-01-18T06:16:53.283Z,1.80
2023-01-18T06:19:41.370Z,2.37
2023-01-18T06:22:28.720Z,2.20
2023-01-18T06:25:16.267Z,2.60
2023-01-18T06:28:05.032Z,2.45
2023-01-18T06:30:56.521Z,1.87
2023-01-18T06:33:44.167Z,1.77
2023-01-18T06:36:32.980Z,2.00
2023-01-18T06:39:20.394Z,1.70
2023-01-18T06:42:07.951Z,1.77
2023-01-18T06:44:55.789Z,2.27
2023-01-18T06:47:43.852Z,2.33
2023-01-18T06:50:31.105Z,1.75
2023-01-18T06:53:20.430Z,2.02
2023-01-18T06:56:11.351Z,1.60
2023-01-18T06:58:58.872Z,2.20
2023-01-18T07:01:48.182Z,2.10
2023-01-18T07:04:37.277Z,1.70
2023-01-18T07:07:24.280Z,1.70
2023-01-18T07:10:12.881Z,1.90
2023-01-18T07:13:01.580Z,2.35
2023-01-18T07:15:56.511Z,2.25
2023-01-18T07:18:45.141Z,2.00
2023-01-18T07:21:33.134Z,2.08
2023-01-18T07:24:21.083Z,2.25
2023-01-18T07:27:08.572Z,2.47
2023-01-18T07:29:56.160Z,2.52
2023-01-18T07:32:49.353Z,1.75
2023-01-18T07:35:37.024Z,2.40
2023-01-18T07:38:25.516Z,2.20
2023-01-18T07:41:14.738Z,1.95
2023-01-18T07:44:05.556Z,2.22
2023-01-18T07:46:52.650Z,2.42
2023-01-18T07:49:40.230Z,2.20
2023-01-18T07:52:27.723Z,3.25
2023-01-18T07:55:15.147Z,2.50
2023-01-18T07:58:03.107Z,2.17
2023-01-18T08:00:50.380Z,1.90
2023-01-18T08:03:38.351Z,2.50
2023-01-18T08:06:27.661Z,2.33
2023-01-18T08:09:15.063Z,2.00
2023-01-18T08:12:02.717Z,2.12
2023-01-18T08:14:50.037Z,2.10
2023-01-18T08:17:38.764Z,2.90
2023-01-18T08:20:26.242Z,2.72
2023-01-18T08:23:13.623Z,1.92
2023-01-18T08:26:06.271Z,2.77
2023-01-18T08:28:54.611Z,2.52
2023-01-18T08:31:42.228Z,2.62
2023-01-18T08:34:30.630Z,3.02
2023-01-18T08:37:17.945Z,2.92
2023-01-18T08:40:05.885Z,3.27
2023-01-18T08:42:59.658Z,2.60
2023-01-18T08:45:50.558Z,2.85
2023-01-18T08:48:38.656Z,2.42
2023-01-18T08:51:26.289Z,2.52
2023-01-18T08:54:13.699Z,2.47
2023-01-18T08:57:02.179Z,2.85
2023-01-18T08:59:49.479Z,2.77
2023-01-18T09:02:37.191Z,2.55
2023-01-18T09:05:24.746Z,2.30
2023-01-18T09:08:12.308Z,2.58
2023-01-18T09:11:07.957Z,2.22
2023-01-18T09:14:01.896Z,2.58
2023-01-18T09:16:46.844Z,2.52
2023-01-18T09:19:34.425Z,2.35
2023-01-18T09:22:24.016Z,2.22
2023-01-18T09:25:11.676Z,2.60
2023-01-18T09:27:58.856Z,2.00
2023-01-18T09:30:46.414Z,1.80
2023-01-18T09:33:37.949Z,1.60
2023-01-18T09:36:30.793Z,1.75
2023-01-18T09:39:19.205Z,1.40
2023-01-18T09:42:10.101Z,1.55
2023-01-18T09:45:00.259Z,1.42
2023-01-18T09:47:49.750Z,1.50
2023-01-18T09:50:45.474Z,1.50
2023-01-18T09:53:38.463Z,1.37
2023-01-18T09:56:31.795Z,1.30
2023-01-18T09:59:55.573Z,1.25
2023-01-18T10:02:44.533Z,1.22
2023-01-18T10:05:34.687Z,1.10
2023-01-18T10:08:28.501Z,1.20
2023-01-18T10:11:21.578Z,1.22
2023-01-18T10:14:31.890Z,1.17
2023-01-18T10:17:37.021Z,1.50
2023-01-18T10:20:44.270Z,1.60
2023-01-18T10:23:34.756Z,1.50
2023-01-18T10:26:26.107Z,1.60
2023-01-18T10:29:41.755Z,1.45
2023-01-18T10:32:31.119Z,1.70
2023-01-18T10:35:23.138Z,1.52
2023-01-18T10:38:13.499Z,1.20
2023-01-18T10:41:02.743Z,1.40
2023-01-18T10:43:50.066Z,1.35
2023-01-18T10:46:37.241Z,1.40
2023-01-18T10:49:39.735Z,1.40
2023-01-18T10:52:30.342Z,1.30
2023-01-18T10:55:20.164Z,1.20
2023-01-18T10:58:08.920Z,1.20
2023-01-18T11:00:57.411Z,1.40
2023-01-18T11:03:54.517Z,1.45
2023-01-18T11:06:51.315Z,1.20
2023-01-18T11:09:51.449Z,1.07
2023-01-18T11:12:45.625Z,1.70
2023-01-18T11:15:33.150Z,1.37
2023-01-18T11:18:20.341Z,1.27
2023-01-18T11:21:11.976Z,1.47
2023-01-18T11:24:01.304Z,1.77
2023-01-18T11:26:54.256Z,1.70
2023-01-18T11:29:46.475Z,1.42
2023-01-18T11:32:34.081Z,1.45
2023-01-18T11:35:37.505Z,1.20
2023-01-18T11:38:30.626Z,1.80
2023-01-18T11:41:20.498Z,3.22
2023-01-18T11:44:25.970Z,2.47
2023-01-18T11:47:20.037Z,3.08
2023-01-18T11:50:45.464Z,3.08
2023-01-18T11:53:55.718Z,3.62
2023-01-18T11:56:51.041Z,3.42
2023-01-18T11:59:46.433Z,3.77
2023-01-18T12:02:50.661Z,3.58
2023-01-18T12:05:45.816Z,4.05
2023-01-18T12:08:54.159Z,3.80
2023-01-18T12:11:47.697Z,4.30
2023-01-18T12:14:47.406Z,4.25
2023-01-18T12:17:46.845Z,4.15
2023-01-18T12:21:01.310Z,4.17
2023-01-18T12:24:22.268Z,4.30
2023-01-18T12:27:21.567Z,3.98
2023-01-18T12:30:21.256Z,3.85
2023-01-18T12:33:31.259Z,4.30
2023-01-18T12:36:19.105Z,3.90
2023-01-18T12:39:24.701Z,4.30
2023-01-18T12:42:15.158Z,4.42
2023-01-18T12:45:20.607Z,4.12
2023-01-18T12:48:32.007Z,4.53
2023-01-18T12:51:22.691Z,5.70
2023-01-18T12:54:15.909Z,7.20
2023-01-18T12:57:04.204Z,5.60
2023-01-18T13:00:03.396Z,5.55
2023-01-18T13:02:54.038Z,5.25
2023-01-18T13:05:59.912Z,4.72
2023-01-18T13:09:05.341Z,3.83
2023-01-18T13:11:53.240Z,4.22
2023-01-18T13:14:49.027Z,4.87
2023-01-18T13:17:42.426Z,3.60
2023-01-18T13:20:49.585Z,4.15
2023-01-18T13:23:45.568Z,4.20
2023-01-18T13:26:34.565Z,4.20
2023-01-18T13:29:30.443Z,3.67
2023-01-18T13:32:35.737Z,4.40
2023-01-18T13:35:27.506Z,3.92
2023-01-18T13:38:16.617Z,3.70
2023-01-18T13:41:10.541Z,3.42
2023-01-18T13:44:03.854Z,3.65
2023-01-18T13:46:51.159Z,3.50
2023-01-18T13:49:41.478Z,3.45
2023-01-18T13:52:35.571Z,4.25
2023-01-18T13:55:32.111Z,3.98
2023-01-18T13:58:27.629Z,3.05
2023-01-18T14:01:18.343Z,3.62
2023-01-18T14:04:27.804Z,3.33
2023-01-18T14:07:21.337Z,3.72
2023-01-18T14:10:25.301Z,3.27
2023-01-18T14:13:18.185Z,4.00
2023-01-18T14:16:06.855Z,3.77
2023-01-18T14:19:00.498Z,4.10
2023-01-18T14:22:10.451Z,4.72
2023-01-18T14:25:10.067Z,4.12
2023-01-18T14:28:16.903Z,4.42
2023-01-18T14:31:05.757Z,5.15
2023-01-18T14:33:53.472Z,5.10
2023-01-18T14:36:41.323Z,5.15
2023-01-18T14:39:31.811Z,5.15
2023-01-18T14:42:19.035Z,5.17
2023-01-18T14:45:07.479Z,5.22
2023-01-18T14:48:00.595Z,4.95
2023-01-18T14:50:49.429Z,5.92
2023-01-18T14:53:40.027Z,5.92
2023-01-18T14:56:35.037Z,6.08
2023-01-18T14:59:24.817Z,6.15
2023-01-18T15:02:22.847Z,5.58
2023-01-18T15:05:16.943Z,6.00
2023-01-18T15:08:05.029Z,6.78
2023-01-18T15:10:52.835Z,6.40
2023-01-18T15:13:43.189Z,6.72
2023-01-18T15:16:31.489Z,7.55
2023-01-18T15:19:21.821Z,7.00
2023-01-18T15:22:11.874Z,6.80
2023-01-18T15:25:03.296Z,7.60
2023-01-18T15:27:52.234Z,7.05
2023-01-18T15:30:39.819Z,6.72
2023-01-18T15:33:28.377Z,7.53
2023-01-18T15:36:16.398Z,7.85
2023-01-18T15:39:04.248Z,8.30
2023-01-18T15:41:53.490Z,8.45
2023-01-18T15:44:50.249Z,8.43
2023-01-18T15:50:30.880Z,8.60
2023-01-18T15:53:45.961Z,10.30
2023-01-18T15:56:34.356Z,10.58
2023-01-18T15:59:24.219Z,9.43
2023-01-18T16:02:21.153Z,9.60
2023-01-18T16:05:10.860Z,10.15
2023-01-18T16:08:19.052Z,9.73
2023-01-18T16:11:06.759Z,10.10
2023-01-18T16:13:59.351Z,9.93
2023-01-18T16:16:47.263Z,9.70
2023-01-18T16:19:43.347Z,8.80
2023-01-18T16:22:37.541Z,9.33
2023-01-18T16:25:25.385Z,10.08
2023-01-18T16:28:12.918Z,9.20
2023-01-18T16:31:02.214Z,9.50
2023-01-18T16:33:49.645Z,9.33
2023-01-18T16:36:42.402Z,9.65
2023-01-18T16:39:25.466Z,9.25
2023-01-18T16:42:13.764Z,9.30
2023-01-18T16:45:02.793Z,9.40
2023-01-18T16:47:50.400Z,8.93
2023-01-18T16:50:38.814Z,10.03
2023-01-18T16:53:27.298Z,9.90
2023-01-18T16:56:15.750Z,9.18
2023-01-18T16:59:07.029Z,8.70
2023-01-18T17:01:54.229Z,9.53
2023-01-18T17:04:41.652Z,10.00
2023-01-18T17:07:29.014Z,9.48
2023-01-18T17:10:31.430Z,10.25
2023-01-18T17:13:19.308Z,10.32
2023-01-18T17:16:06.978Z,10.82
2023-01-18T17:18:54.325Z,10.18
2023-01-18T17:21:42.612Z,9.85
2023-01-18T17:24:29.863Z,9.03
2023-01-18T17:27:17.263Z,8.93
2023-01-18T17:30:06.219Z,11.05
2023-01-18T17:32:54.556Z,9.95
2023-01-18T17:35:41.735Z,10.32
2023-01-18T17:41:27.667Z,10.20
2023-01-18T17:44:13.188Z,10.55
2023-01-18T17:47:01.929Z,10.82
2023-01-18T17:49:49.415Z,11.15
2023-01-18T17:52:38.772Z,10.70
2023-01-18T17:55:34.087Z,12.58
2023-01-18T17:58:15.753Z,10.98
2023-01-18T18:01:12.811Z,10.63
2023-01-18T18:04:00.151Z,11.63
2023-01-18T18:06:54.182Z,10.82
2023-01-18T18:09:39.771Z,13.50
2023-01-18T18:12:28.644Z,11.35
2023-01-18T18:15:16.457Z,10.20
2023-01-18T18:18:05.574Z,10.25
2023-01-18T18:20:58.296Z,10.75
2023-01-18T18:23:48.765Z,9.75
2023-01-18T18:26:36.441Z,11.43
2023-01-18T18:29:23.933Z,10.18
2023-01-18T18:32:11.710Z,11.10
2023-01-18T18:34:59.279Z,10.88
2023-01-18T18:37:47.160Z,11.80
2023-01-18T20:19:22.967Z,10.28
2023-01-18T20:22:10.048Z,10.75
2023-01-18T20:24:57.066Z,10.28
2023-01-18T20:27:44.161Z,11.30
2023-01-18T20:30:32.120Z,11.48
2023-01-18T20:33:21.815Z,10.68
2023-01-18T20:36:09.081Z,10.03
2023-01-18T20:38:56.106Z,10.78
2023-01-18T20:41:43.490Z,10.90
2023-01-18T20:44:30.937Z,11.10
2023-01-18T20:47:18.150Z,11.88
2023-01-18T20:50:06.068Z,11.05
2023-01-18T20:52:55.842Z,10.18
2023-01-18T20:55:43.124Z,11.08
2023-01-18T20:58:31.277Z,11.68
2023-01-18T21:01:18.914Z,10.80
2023-01-18T21:04:07.048Z,10.58
2023-01-18T21:06:54.306Z,10.90
2023-01-18T21:09:41.537Z,10.82
2023-01-18T21:12:28.871Z,11.45
2023-01-18T21:15:16.457Z,10.90
2023-01-18T21:18:04.729Z,11.75
2023-01-18T21:20:55.865Z,11.48
2023-01-18T21:23:42.975Z,11.48
2023-01-18T21:26:30.395Z,12.00
2023-01-18T21:29:17.622Z,11.40
2023-01-18T21:32:05.282Z,10.50
2023-01-18T21:34:52.704Z,11.73
2023-01-18T21:37:40.308Z,9.90
2023-01-18T21:40:27.331Z,10.50
2023-01-18T21:43:39.745Z,11.08
2023-01-18T21:46:26.824Z,11.83
2023-01-18T21:49:19.643Z,10.32
2023-01-18T21:52:22.901Z,10.55
2023-01-18T21:55:10.547Z,10.55
2023-01-18T21:58:15.391Z,11.70
2023-01-18T22:01:04.132Z,10.15
2023-01-18T22:04:10.795Z,10.85
2023-01-18T22:06:59.352Z,11.45
2023-01-18T22:10:02.641Z,11.90
2023-01-18T22:12:37.387Z,12.10
2023-01-18T22:15:25.503Z,11.03
2023-01-18T22:18:12.982Z,11.43
2023-01-18T22:21:00.276Z,11.05
2023-01-18T22:23:47.743Z,11.95
2023-01-18T22:26:36.381Z,13.48
2023-01-18T22:29:23.530Z,11.63
2023-01-18T22:32:10.523Z,11.80
2023-01-18T22:34:57.872Z,10.82
2023-01-18T22:37:45.033Z,13.15
2023-01-18T22:40:32.386Z,12.47
2023-01-18T22:43:21.315Z,12.23
2023-01-18T22:46:09.652Z,12.95
2023-01-18T22:48:56.688Z,11.80
2023-01-18T22:51:43.610Z,12.33
2023-01-18T22:54:30.814Z,12.28
2023-01-18T22:57:18.239Z,12.65
2023-01-18T23:00:06.963Z,13.93
2023-01-18T23:02:54.146Z,13.88
2023-01-18T23:05:41.517Z,12.93
2023-01-18T23:08:32.027Z,13.40
2023-01-18T23:11:21.917Z,13.60
2023-01-18T23:14:26.745Z,13.72
2023-01-18T23:17:32.524Z,13.53
2023-01-18T23:20:22.548Z,14.25
2023-01-18T23:23:10.036Z,13.28
2023-01-18T23:26:00.742Z,14.50
2023-01-18T23:28:48.136Z,13.32
2023-01-18T23:31:35.452Z,12.82
2023-01-18T23:34:24.989Z,12.93
2023-01-18T23:37:12.082Z,12.43
2023-01-18T23:40:17.205Z,12.80
2023-01-18T23:43:22.551Z,12.80
2023-01-18T23:46:27.359Z,12.58
2023-01-18T23:49:32.344Z,13.30
2023-01-18T23:52:37.323Z,13.85
2023-01-18T23:55:24.299Z,14.13
2023-01-18T23:58:11.238Z,14.40
